createdAt,value
2022-08-10T00:00:36.173Z,2.15
2022-08-10T00:03:03.271Z,2.20
2022-08-10T00:05:43.045Z,1.83
2022-08-10T00:08:23.654Z,2.10
2022-08-10T00:10:55.757Z,2.47
2022-08-10T00:13:24.234Z,2.00
2022-08-10T00:15:54.933Z,1.95
2022-08-10T00:18:34.831Z,2.10
2022-08-10T00:21:07.942Z,2.00
2022-08-10T00:23:36.312Z,1.98
2022-08-10T00:26:04.160Z,2.30
2022-08-10T00:28:31.048Z,2.70
2022-08-10T00:30:58.040Z,2.30
2022-08-10T00:33:25.344Z,2.10
2022-08-10T00:35:52.381Z,2.00
2022-08-10T00:38:19.321Z,1.83
2022-08-10T00:40:46.297Z,2.53
2022-08-10T00:43:13.255Z,2.20
2022-08-10T00:45:40.244Z,2.00
2022-08-10T00:48:07.240Z,1.80
2022-08-10T00:50:35.746Z,2.30
2022-08-10T00:53:02.880Z,1.75
2022-08-10T00:55:30.512Z,1.65
2022-08-10T00:57:57.836Z,2.20
2022-08-10T01:00:25.195Z,2.85
2022-08-10T01:02:53.229Z,2.30
2022-08-10T01:05:21.023Z,1.65
2022-08-10T01:07:53.740Z,2.38
2022-08-10T01:10:29.252Z,2.25
2022-08-10T01:13:21.142Z,1.90
2022-08-10T01:16:05.250Z,2.08
2022-08-10T01:18:48.695Z,2.20
2022-08-10T01:21:54.275Z,2.30
2022-08-10T01:24:26.724Z,2.10
2022-08-10T01:27:27.250Z,1.80
2022-08-10T01:30:08.177Z,2.10
2022-08-10T01:32:47.025Z,2.20
2022-08-10T01:35:49.809Z,1.90
2022-08-10T01:38:24.511Z,2.60
2022-08-10T01:41:01.701Z,2.10
2022-08-10T01:43:32.198Z,1.90
2022-08-10T01:46:03.325Z,2.38
2022-08-10T01:48:38.682Z,1.90
2022-08-10T01:51:23.814Z,1.90
2022-08-10T01:54:01.465Z,2.00
2022-08-10T01:56:33.438Z,1.83
2022-08-10T02:01:33.615Z,2.13
2022-08-10T02:04:06.391Z,2.33
2022-08-10T02:06:38.845Z,2.33
2022-08-10T02:09:08.285Z,2.30
2022-08-10T02:12:05.455Z,2.50
2022-08-10T02:14:32.920Z,2.10
2022-08-10T02:17:57.310Z,2.10
2022-08-10T02:20:02.896Z,2.20
2022-08-10T02:22:36.901Z,2.20
2022-08-10T02:25:07.797Z,2.10
2022-08-10T02:27:35.932Z,1.77
2022-08-10T02:30:04.967Z,2.15
2022-08-10T02:32:37.852Z,2.40
2022-08-10T02:35:13.285Z,2.47
2022-08-10T02:37:53.063Z,2.45
2022-08-10T02:45:14.171Z,2.70
2022-08-10T02:45:21.692Z,2.42
2022-08-10T02:46:10.987Z,2.13
2022-08-10T02:48:48.999Z,2.90
2022-08-10T02:52:06.233Z,2.38
2022-08-10T02:54:21.524Z,2.08
2022-08-10T02:57:18.982Z,3.47
2022-08-10T02:59:53.818Z,2.20
2022-08-10T03:02:39.181Z,2.70
2022-08-10T03:05:11.875Z,2.90
2022-08-10T03:07:46.956Z,2.65
2022-08-10T03:10:18.438Z,2.38
2022-08-10T03:12:51.773Z,2.33
2022-08-10T03:15:20.641Z,2.63
2022-08-10T03:17:57.493Z,2.55
2022-08-10T03:20:37.446Z,2.78
2022-08-10T03:23:12.921Z,2.80
2022-08-10T03:25:40.488Z,2.45
2022-08-10T03:28:08.447Z,4.05
2022-08-10T03:30:35.984Z,3.50
2022-08-10T03:33:07.654Z,2.83
2022-08-10T03:35:35.003Z,3.35
2022-08-10T03:38:02.608Z,2.80
2022-08-10T03:40:46.096Z,3.20
2022-08-10T03:43:19.977Z,4.47
2022-08-10T03:45:54.858Z,5.03
2022-08-10T03:48:44.679Z,3.03
2022-08-10T03:51:13.145Z,3.65
2022-08-10T03:54:03.302Z,4.72
2022-08-10T03:56:32.053Z,6.38
2022-08-10T03:59:00.505Z,3.38
2022-08-10T04:02:46.746Z,3.67
2022-08-10T04:04:20.810Z,4.03
2022-08-10T04:06:54.771Z,4.05
2022-08-10T04:09:22.805Z,4.20
2022-08-10T04:11:49.792Z,3.90
2022-08-10T04:14:38.585Z,3.35
2022-08-10T04:17:03.749Z,3.95
2022-08-10T04:19:41.075Z,4.57
2022-08-10T04:22:14.884Z,4.00
2022-08-10T04:24:43.614Z,3.80
2022-08-10T04:27:10.976Z,4.47
2022-08-10T04:29:38.072Z,3.65
2022-08-10T04:32:06.581Z,4.22
2022-08-10T04:34:35.454Z,3.63
2022-08-10T04:37:08.910Z,3.72
2022-08-10T04:39:36.623Z,3.83
2022-08-10T04:42:04.335Z,3.75
2022-08-10T04:44:31.249Z,5.13
2022-08-10T04:46:59.446Z,3.33
2022-08-10T04:49:55.050Z,4.60
2022-08-10T04:52:14.892Z,4.70
2022-08-10T04:54:41.959Z,4.68
2022-08-10T04:57:09.334Z,4.10
2022-08-10T04:59:36.398Z,4.72
2022-08-10T05:02:21.954Z,3.75
2022-08-10T05:04:50.372Z,5.32
2022-08-10T05:07:18.536Z,4.10
2022-08-10T05:10:03.044Z,4.35
2022-08-10T05:12:37.613Z,4.03
2022-08-10T05:15:10.509Z,4.10
2022-08-10T05:17:38.069Z,4.40
2022-08-10T05:20:07.743Z,4.38
2022-08-10T05:22:37.402Z,4.63
2022-08-10T05:25:06.402Z,4.20
2022-08-10T05:27:34.034Z,4.72
2022-08-10T05:30:01.715Z,5.10
2022-08-10T05:32:30.499Z,4.90
2022-08-10T05:34:57.788Z,4.75
2022-08-10T05:38:09.920Z,4.90
2022-08-10T05:40:14.058Z,5.10
2022-08-10T05:42:41.703Z,4.13
2022-08-10T05:45:22.136Z,5.40
2022-08-10T05:48:41.689Z,5.07
2022-08-10T05:50:36.184Z,4.88
2022-08-10T05:53:59.310Z,5.60
2022-08-10T05:55:50.394Z,5.68
2022-08-10T05:58:17.308Z,5.28
2022-08-10T06:00:49.791Z,5.90
2022-08-10T06:03:24.089Z,5.10
2022-08-10T06:05:54.630Z,5.72
2022-08-10T06:08:26.740Z,5.65
2022-08-10T06:12:24.185Z,6.38
2022-08-10T06:14:13.876Z,6.07
2022-08-10T06:16:45.189Z,5.65
2022-08-10T06:19:15.075Z,5.53
2022-08-10T06:21:59.380Z,4.90
2022-08-10T06:24:33.323Z,6.03
2022-08-10T06:27:00.550Z,5.85
2022-08-10T06:29:30.787Z,5.22
2022-08-10T06:31:59.663Z,5.10
2022-08-10T06:34:36.105Z,5.47
2022-08-10T06:37:05.215Z,5.72
2022-08-10T06:39:34.584Z,6.53
2022-08-10T06:42:28.305Z,5.50
2022-08-10T06:45:23.390Z,5.32
2022-08-10T06:48:06.156Z,5.50
2022-08-10T06:50:45.333Z,5.35
2022-08-10T06:53:17.635Z,5.68
2022-08-10T06:55:56.519Z,5.10
2022-08-10T06:58:28.365Z,5.47
2022-08-10T07:00:56.951Z,5.78
2022-08-10T07:03:31.560Z,5.45
2022-08-10T07:05:59.905Z,5.28
2022-08-10T07:08:31.434Z,5.97
2022-08-10T07:10:59.478Z,5.78
2022-08-10T07:14:16.506Z,5.78
2022-08-10T07:16:16.480Z,4.88
2022-08-10T07:18:46.362Z,5.10
2022-08-10T07:21:15.046Z,5.15
2022-08-10T07:23:57.559Z,7.70
2022-08-10T07:26:29.002Z,5.63
2022-08-10T07:28:56.811Z,5.50
2022-08-10T07:31:35.413Z,5.28
2022-08-10T07:34:29.576Z,5.85
2022-08-10T07:37:01.146Z,5.38
2022-08-10T07:39:58.509Z,5.72
2022-08-10T07:42:21.300Z,6.10
2022-08-10T07:44:50.543Z,5.88
2022-08-10T07:47:53.699Z,5.00
2022-08-10T07:50:14.005Z,6.05
2022-08-10T07:52:42.583Z,5.53
2022-08-10T07:55:14.417Z,5.65
2022-08-10T08:00:13.329Z,6.60
2022-08-10T08:02:55.710Z,5.72
2022-08-10T08:05:51.889Z,6.00
2022-08-10T08:08:15.717Z,6.18
2022-08-10T08:10:42.902Z,6.20
2022-08-10T08:13:11.543Z,4.50
2022-08-10T08:16:16.865Z,5.07
2022-08-10T08:18:28.708Z,5.90
2022-08-10T08:20:56.032Z,4.80
2022-08-10T08:24:05.896Z,5.15
2022-08-10T08:26:15.838Z,4.85
2022-08-10T08:28:45.700Z,5.50
2022-08-10T08:31:14.525Z,4.85
2022-08-10T08:33:44.418Z,5.20
2022-08-10T08:36:14.232Z,4.63
2022-08-10T08:38:42.275Z,4.72
2022-08-10T08:41:43.532Z,5.10
2022-08-10T08:44:38.921Z,4.45
2022-08-10T08:48:03.737Z,4.30
2022-08-10T08:50:10.916Z,4.43
2022-08-10T08:52:56.305Z,5.30
2022-08-10T08:56:05.028Z,4.60
2022-08-10T08:59:02.512Z,4.28
2022-08-10T09:01:53.063Z,4.50
2022-08-10T09:04:53.447Z,4.00
2022-08-10T09:08:01.153Z,3.95
2022-08-10T09:10:54.225Z,4.30
2022-08-10T09:13:44.273Z,4.43
2022-08-10T09:16:26.446Z,4.00
2022-08-10T09:19:35.465Z,3.20
2022-08-10T09:22:21.611Z,4.28
2022-08-10T09:25:03.682Z,5.63
2022-08-10T09:27:39.451Z,3.55
2022-08-10T09:30:13.612Z,3.80
2022-08-10T09:36:16.363Z,3.90
2022-08-10T09:36:22.958Z,4.53
2022-08-10T09:40:06.547Z,4.75
2022-08-10T09:42:10.197Z,4.68
2022-08-10T09:45:09.956Z,3.75
2022-08-10T09:48:02.484Z,3.65
2022-08-10T09:54:04.718Z,3.38
2022-08-10T09:56:31.592Z,3.50
2022-08-10T10:00:00.460Z,4.22
2022-08-10T10:02:30.262Z,4.25
2022-08-10T10:05:18.504Z,3.83
2022-08-10T10:08:16.278Z,4.13
2022-08-10T10:10:57.912Z,3.83
2022-08-10T10:16:51.996Z,3.35
2022-08-10T10:19:40.883Z,3.28
2022-08-10T10:22:26.497Z,3.03
2022-08-10T10:25:02.256Z,3.83
2022-08-10T10:28:18.819Z,6.38
2022-08-10T10:31:16.810Z,4.10
2022-08-10T10:34:10.771Z,5.00
2022-08-10T10:36:42.245Z,4.43
2022-08-10T10:39:13.490Z,4.28
2022-08-10T10:42:04.642Z,3.70
2022-08-10T10:44:42.113Z,3.42
2022-08-10T10:47:23.767Z,5.60
2022-08-10T10:50:15.710Z,32.90
2022-08-10T10:53:01.493Z,62.28
2022-08-10T10:56:15.446Z,39.45
2022-08-10T10:58:46.780Z,10.38
2022-08-10T11:01:36.899Z,11.18
2022-08-10T11:04:06.752Z,13.68
2022-08-10T11:06:57.224Z,8.75
2022-08-10T11:10:04.967Z,5.53
2022-08-10T11:15:35.167Z,5.45
2022-08-10T11:18:24.341Z,4.05
2022-08-10T11:21:03.400Z,4.40
2022-08-10T11:24:48.748Z,4.28
2022-08-10T11:27:07.295Z,3.30
2022-08-10T11:30:00.263Z,3.20
2022-08-10T11:32:52.165Z,2.60
2022-08-10T11:35:34.839Z,3.22
2022-08-10T11:39:04.014Z,3.55
2022-08-10T11:42:07.118Z,2.88
2022-08-10T11:44:42.865Z,3.00
2022-08-10T11:47:18.531Z,2.90
2022-08-10T11:50:00.624Z,2.80
2022-08-10T11:52:45.574Z,3.22
2022-08-10T11:55:18.829Z,4.10
2022-08-10T11:57:53.058Z,5.28
2022-08-10T12:00:23.204Z,3.28
2022-08-10T12:02:57.970Z,3.80
2022-08-10T12:05:54.739Z,3.17
2022-08-10T12:10:05.324Z,3.17
2022-08-10T12:11:24.661Z,3.00
2022-08-10T12:14:22.274Z,3.20
2022-08-10T12:16:55.379Z,3.38
2022-08-10T12:20:02.310Z,3.10
2022-08-10T12:22:43.220Z,4.13
2022-08-10T12:25:57.646Z,3.80
2022-08-10T12:28:50.671Z,3.83
2022-08-10T12:31:27.629Z,3.60
2022-08-10T12:34:11.507Z,3.08
2022-08-10T12:36:43.007Z,3.25
2022-08-10T12:39:31.645Z,2.80
2022-08-10T12:42:07.567Z,3.30
2022-08-10T12:44:44.672Z,3.20
2022-08-10T12:47:36.018Z,3.63
2022-08-10T12:50:33.691Z,3.90
2022-08-10T12:53:17.587Z,3.38
2022-08-10T12:55:45.316Z,3.70
2022-08-10T12:58:57.173Z,4.47
2022-08-10T13:01:22.593Z,3.63
2022-08-10T13:04:23.569Z,3.60
2022-08-10T13:06:47.205Z,2.80
2022-08-10T13:09:20.534Z,3.13
2022-08-10T13:12:35.355Z,4.10
2022-08-10T13:15:45.767Z,3.45
2022-08-10T13:18:18.938Z,2.72
2022-08-10T13:20:52.019Z,3.10
2022-08-10T13:23:26.946Z,3.40
2022-08-10T13:25:56.946Z,4.03
2022-08-10T13:28:40.015Z,3.00
2022-08-10T13:31:16.752Z,4.25
2022-08-10T13:34:40.159Z,3.70
2022-08-10T13:36:41.701Z,3.80
2022-08-10T13:39:09.632Z,2.80
2022-08-10T13:41:42.067Z,4.07
2022-08-10T13:44:12.874Z,3.22
2022-08-10T13:46:42.301Z,3.60
2022-08-10T13:49:11.253Z,3.80
2022-08-10T13:51:57.466Z,3.53
2022-08-10T13:54:38.744Z,5.82
2022-08-10T13:57:06.836Z,4.32
2022-08-10T14:00:34.904Z,3.70
2022-08-10T14:02:28.656Z,4.38
2022-08-10T14:04:58.220Z,3.88
2022-08-10T14:07:27.444Z,4.07
2022-08-10T14:10:01.031Z,5.40
2022-08-10T14:12:41.048Z,3.30
2022-08-10T14:15:14.635Z,3.60
2022-08-10T14:17:45.001Z,3.95
2022-08-10T14:20:16.794Z,3.20
2022-08-10T14:22:46.454Z,3.30
2022-08-10T14:25:15.382Z,4.00
2022-08-10T14:28:03.019Z,4.10
2022-08-10T14:30:32.546Z,4.67
2022-08-10T14:33:04.622Z,3.40
2022-08-10T14:36:21.109Z,4.05
2022-08-10T14:38:28.719Z,3.40
2022-08-10T14:40:59.319Z,3.80
2022-08-10T14:43:38.091Z,5.15
2022-08-10T14:46:17.863Z,3.65
2022-08-10T14:48:48.374Z,4.20
2022-08-10T14:51:19.636Z,3.15
2022-08-10T14:53:56.277Z,3.60
2022-08-10T14:56:31.289Z,4.30
2022-08-10T14:59:06.988Z,4.50
2022-08-10T15:02:38.257Z,3.40
2022-08-10T15:04:26.814Z,3.65
2022-08-10T15:07:12.225Z,3.20
2022-08-10T15:10:00.707Z,3.40
2022-08-10T15:12:38.642Z,3.50
2022-08-10T15:15:09.633Z,3.22
2022-08-10T15:17:42.165Z,4.35
2022-08-10T15:20:22.076Z,3.17
2022-08-10T15:23:30.601Z,3.25
2022-08-10T15:26:11.471Z,3.20
2022-08-10T15:29:22.676Z,3.15
2022-08-10T15:31:35.496Z,3.35
2022-08-10T15:34:22.911Z,5.65
2022-08-10T15:37:40.821Z,3.60
2022-08-10T15:40:27.938Z,3.08
2022-08-10T15:43:25.401Z,3.90
2022-08-10T15:46:15.539Z,3.80
2022-08-10T15:48:48.195Z,3.20
2022-08-10T15:51:53.777Z,3.97
2022-08-10T15:54:33.441Z,4.38
2022-08-10T15:57:09.066Z,3.70
2022-08-10T15:59:44.654Z,4.00
2022-08-10T16:02:17.527Z,3.30
2022-08-10T16:04:59.521Z,3.63
2022-08-10T16:07:45.885Z,5.05
2022-08-10T16:13:00.993Z,3.60
2022-08-10T16:15:30.320Z,3.38
2022-08-10T16:18:16.217Z,3.60
2022-08-10T16:20:55.185Z,3.47
2022-08-10T16:23:38.255Z,3.28
2022-08-10T16:26:14.713Z,3.90
2022-08-10T16:28:55.453Z,3.30
2022-08-10T16:31:25.751Z,4.47
2022-08-10T16:33:57.195Z,3.53
2022-08-10T16:36:33.475Z,4.03
2022-08-10T16:39:04.662Z,4.30
2022-08-10T16:42:03.456Z,4.03
2022-08-10T16:44:23.417Z,5.40
2022-08-10T16:46:51.302Z,4.75
2022-08-10T16:49:20.316Z,3.78
2022-08-10T16:51:50.932Z,6.70
2022-08-10T16:54:26.751Z,4.22
2022-08-10T16:57:03.688Z,3.70
2022-08-10T16:59:36.831Z,3.30
2022-08-10T17:02:05.828Z,3.92
2022-08-10T17:04:34.677Z,4.25
2022-08-10T17:07:08.391Z,4.47
2022-08-10T17:09:38.698Z,4.88
2022-08-10T17:14:40.454Z,4.85
2022-08-10T17:17:24.617Z,3.72
2022-08-10T17:19:56.669Z,3.67
2022-08-10T17:22:44.417Z,3.30
2022-08-10T17:25:22.284Z,3.38
2022-08-10T17:28:04.767Z,3.35
2022-08-10T17:30:57.269Z,2.90
2022-08-10T17:33:30.403Z,3.47
2022-08-10T17:36:04.151Z,6.18
2022-08-10T17:38:33.280Z,4.25
2022-08-10T17:41:11.772Z,3.42
2022-08-10T17:44:00.918Z,3.50
2022-08-10T17:46:38.709Z,3.47
2022-08-10T17:49:11.670Z,3.40
2022-08-10T17:51:41.162Z,3.40
2022-08-10T17:54:30.184Z,4.88
2022-08-10T17:57:00.703Z,4.40
2022-08-10T17:59:30.866Z,3.95
2022-08-10T18:02:06.523Z,4.85
2022-08-10T18:04:41.904Z,6.13
2022-08-10T18:07:10.907Z,7.20
2022-08-10T18:09:53.715Z,5.57
2022-08-10T18:12:32.012Z,5.53
2022-08-10T18:15:06.527Z,3.55
2022-08-10T18:17:43.700Z,5.60
2022-08-10T18:22:44.927Z,5.93
2022-08-10T18:25:29.713Z,5.28
2022-08-10T18:28:04.273Z,5.28
2022-08-10T18:30:36.741Z,5.68
2022-08-10T18:35:34.703Z,4.72
2022-08-10T18:38:04.986Z,4.63
2022-08-10T18:40:35.724Z,6.97
2022-08-10T18:44:07.024Z,4.10
2022-08-10T18:45:58.696Z,4.00
2022-08-10T18:48:44.358Z,4.40
2022-08-10T18:51:12.360Z,3.55
2022-08-10T18:53:50.734Z,5.57
2022-08-10T18:56:26.492Z,5.25
2022-08-10T18:59:15.176Z,7.57
2022-08-10T19:02:00.360Z,4.35
2022-08-10T19:04:41.956Z,3.90
2022-08-10T19:10:08.501Z,4.20
2022-08-10T19:12:54.078Z,5.18
2022-08-10T19:15:26.604Z,5.15
2022-08-10T19:18:18.928Z,4.93
2022-08-10T19:21:06.212Z,5.85
2022-08-10T19:23:46.996Z,13.80
2022-08-10T19:26:44.933Z,6.03
2022-08-10T19:30:09.332Z,4.20
2022-08-10T19:32:27.673Z,4.95
2022-08-10T19:35:00.455Z,3.70
2022-08-10T19:38:16.284Z,5.18
2022-08-10T19:41:09.570Z,4.47
2022-08-10T19:44:02.610Z,5.68
2022-08-10T19:47:05.736Z,4.65
2022-08-10T19:49:40.001Z,5.10
2022-08-10T19:52:30.263Z,4.30
2022-08-10T19:55:20.899Z,8.35
2022-08-10T19:57:57.362Z,4.63
2022-08-10T20:00:35.381Z,4.82
2022-08-10T20:03:21.040Z,7.32
2022-08-10T20:06:28.081Z,4.40
2022-08-10T20:09:08.074Z,5.35
2022-08-10T20:11:59.251Z,5.47
2022-08-10T20:14:49.587Z,4.88
2022-08-10T20:17:51.574Z,5.13
2022-08-10T20:20:42.525Z,9.75
2022-08-10T20:23:32.982Z,22.13
2022-08-10T20:26:15.082Z,6.00
2022-08-10T20:29:05.104Z,33.63
2022-08-10T20:32:02.437Z,9.85
2022-08-10T20:34:49.120Z,5.80
2022-08-10T20:38:02.636Z,6.65
2022-08-10T20:40:38.382Z,4.47
2022-08-10T20:43:23.141Z,3.92
2022-08-10T20:46:11.129Z,4.53
2022-08-10T20:48:46.561Z,3.90
2022-08-10T20:51:23.105Z,3.95
2022-08-10T20:53:56.632Z,4.70
2022-08-10T20:56:48.458Z,3.55
2022-08-10T20:59:33.402Z,4.35
2022-08-10T21:02:27.012Z,4.10
2022-08-10T21:05:17.398Z,3.50
2022-08-10T21:08:02.434Z,4.93
2022-08-10T21:10:52.470Z,4.80
2022-08-10T21:13:47.078Z,4.80
2022-08-10T21:16:35.493Z,18.50
2022-08-10T21:19:33.418Z,4.38
2022-08-10T21:22:16.852Z,3.47
2022-08-10T21:25:17.592Z,3.83
2022-08-10T21:27:59.723Z,3.47
2022-08-10T21:30:36.370Z,3.53
2022-08-10T21:33:09.240Z,3.33
2022-08-10T21:35:46.081Z,4.28
2022-08-10T21:38:24.485Z,4.65
2022-08-10T21:41:18.556Z,3.55
2022-08-10T21:44:23.573Z,3.17
2022-08-10T21:50:39.315Z,4.38
2022-08-10T21:53:57.224Z,4.10
2022-08-10T21:56:56.031Z,3.40
2022-08-10T22:00:11.305Z,3.03
2022-08-10T22:02:59.837Z,2.90
2022-08-10T22:05:49.098Z,3.58
2022-08-10T22:08:40.804Z,7.57
2022-08-10T22:11:37.217Z,3.63
2022-08-10T22:18:03.097Z,3.55
2022-08-10T22:20:49.802Z,4.07
2022-08-10T22:23:41.385Z,3.33
2022-08-10T22:26:29.701Z,3.72
2022-08-10T22:29:19.268Z,3.25
2022-08-10T22:31:25.258Z,3.78
2022-08-10T22:31:28.110Z,2.85
2022-08-10T22:32:20.145Z,3.22
2022-08-10T22:35:17.363Z,3.10
2022-08-10T22:38:08.394Z,4.38
2022-08-10T22:40:54.001Z,2.92
2022-08-10T22:43:52.101Z,3.42
2022-08-10T22:46:47.494Z,2.80
2022-08-10T22:49:22.749Z,2.80
2022-08-10T22:51:55.097Z,2.83
2022-08-10T22:55:00.583Z,4.13
2022-08-10T22:57:46.035Z,3.10
2022-08-10T23:00:19.063Z,2.78
2022-08-10T23:03:22.055Z,2.53
2022-08-10T23:05:57.501Z,2.90
2022-08-10T23:08:35.304Z,2.78
2022-08-10T23:11:08.600Z,2.72
2022-08-10T23:13:42.401Z,2.58
2022-08-10T23:16:45.847Z,2.83
2022-08-10T23:19:47.787Z,3.60
2022-08-10T23:22:21.790Z,2.42
2022-08-10T23:24:52.632Z,2.60
2022-08-10T23:27:39.115Z,3.45
2022-08-10T23:30:17.946Z,2.70
2022-08-10T23:32:49.010Z,2.88
2022-08-10T23:36:32.625Z,3.08
2022-08-10T23:38:07.420Z,3.25
2022-08-10T23:40:36.354Z,2.10
2022-08-10T23:43:04.870Z,2.80
2022-08-10T23:45:52.985Z,2.75
2022-08-10T23:48:32.010Z,2.83
2022-08-10T23:51:16.173Z,2.72
2022-08-10T23:53:46.387Z,2.80
2022-08-10T23:56:17.196Z,2.40
2022-08-10T23:58:47.214Z,3.00
